South Riding, Virginia
Current Conditions -  °F | °C
As of 2:52 AM on Sunday 26 Oct 2014 (Local Time) from KIAD Reporting Station
Few Clouds Few Clouds  
Wind Chill: 61°   Ceiling: Unl
Heat Index: 61°   Visibility: 10mi
Dew Point: 44°   Wind: 21mph
Humidity: 54%   Direction: 290°WNW
Pressure: 29.7"   Gusts: 26mph
Location:  38.8963°N, 77.5216°W
Report Text: KIAD 260652Z 29018G23KT 10SM FEW060 16/07 A2970 RMK AO2 WSHFT 0636 SLP054 T01610067
Loading
Personal Weather Stations






























Interactive Weather Map
Tropical Storm Tracking
New forecast layout! Learn more

10-Day Weather Forecast

Advertisements
Track Severe Weather on mobile